Airfield :
LOGIN :

Register | Disclaimer

   EN    FR    IT 

 










Legend :    VFR   Marginal VFR   IFR   Intensive IFR   Very Intensive IFR
Visi :
Ceiling :
>= 8 km
>= 3000ft
5 to 8 km
1000 to 3000 ft
1500m to 5 km
500 to 1000 ft
800 to 1500m
200 to 500 ft
< 800m
< 200 ft
Symbols :   Thunderstorms  Fog  Heavy snow  Heavy precipitations  Wind > 20 kt
SIGMETs :     Misc.  Thunderstorms  Icing  Turbulence  Mountain Waves  Volcanic Ashes







- Airport Elevation : 302 ft
- Download approach charts


LFPM - Melun Villaroche

CURRENT METAR :
  • 231930Z AUTO 22008KT 5000 RA BR FEW011/// BKN047/// OVC054/// ///TCU 08/07 Q1014

EXPIRED METARs :
  • 231900Z AUTO 20012KT 5000 RA BR FEW010/// BKN041/// OVC049/// ///CB 09/08 Q1014
  • 231830Z AUTO 22015KT 7000 RA ///CB 09/08 Q1012
  • 231800Z AUTO 19014KT 9999 -RA FEW018/// BKN062/// OVC072/// ///TCU 10/08 Q1012
  • 231730Z AUTO 17010KT 9999 FEW027/// SCT040/// OVC060/// ///TCU 11/09 Q1011
  • 231700Z AUTO 12007KT 9999 -DZ SCT032 BKN039 BKN056 11/09 Q1011

Expired Forecast.
ATIS : +33 1 64 14 28 44
No reported NOTAMs for that airfield.
1 SIGMET reported for the Paris FIR (LFFF) :
 
Embedded thunderstorms
LFFF SIGMET 5 VALID 231800/232000 LFPW
LFFF PARIS FIR/UIR EMBD TS FCST WI N4800 E00500 - N4730 E00415 - N4630 E00445 - N4630 E00330 - N4815 E00330 TOP FL320 MOV N 15KT NC=



MET'MAP, your aeronautical weather chart ! - Copyright ORBIFLY December 2007 - Disclaimer

ORBIFLY MET'MAP TEAM :

Programming & Development : Alexandra Zaïnal
Concept & Development : Baudouin d'Aumeries
Co-Development & Prog : Marc-Olivier Méhu
Technical & hardware support : Manuel Goepfert

Contact : metmap@orbifly.com




SOURCES & CREDITS :

   NOAA